Time;durP1;ratioP1;P1;durP2;ratioP2;P2;SDS_P1;SDS_P2;PMS_P1;PMS_P2;Temp;Humidity;BMP_temperature;BMP_pressure;BME280_temperature;BME280_humidity;BME280_pressure;Samples;Min_cycle;Max_cycle;Signal;HPM_P1;HPM_P2
2021/05/15 00:00:32;;;;;;;4.12;1.47;;;;;;;14.06;65.30;100488.75;1749550;82;21035;-68
2021/05/15 00:02:59;;;;;;;4.28;1.85;;;;;;;14.01;65.42;100487.44;1749366;80;21117;-67
2021/05/15 00:05:26;;;;;;;1.92;1.47;;;;;;;13.97;65.55;100493.41;1749468;82;20985;-67
2021/05/15 00:07:53;;;;;;;2.58;0.98;;;;;;;13.94;65.44;100491.48;1749320;82;21037;-67
2021/05/15 00:10:21;;;;;;;4.12;1.30;;;;;;;13.93;65.60;100501.19;1749356;82;20938;-68
2021/05/15 00:12:48;;;;;;;2.42;1.10;;;;;;;13.93;65.03;100496.41;1749491;80;21073;-68
2021/05/15 00:15:16;;;;;;;1.52;1.20;;;;;;;13.94;65.01;100493.66;1749413;82;20989;-68
2021/05/15 00:17:44;;;;;;;3.72;1.20;;;;;;;13.95;64.75;100490.05;1749453;82;21054;-67
2021/05/15 00:20:15;;;;;;;3.70;1.55;;;;;;;13.98;64.62;100487.17;1749463;82;20934;-69
2021/05/15 00:22:43;;;;;;;6.53;1.25;;;;;;;14.01;64.44;100481.68;1749546;80;20886;-68
2021/05/15 00:25:12;;;;;;;9.28;1.75;;;;;;;14.02;64.24;100472.80;1749521;80;21607;-68
2021/05/15 00:27:39;;;;;;;4.53;1.85;;;;;;;14.02;64.22;100464.89;1749494;82;20859;-68
2021/05/15 00:30:09;;;;;;;1.62;1.30;;;;;;;14.01;64.46;100455.80;1749511;80;20946;-69
2021/05/15 00:32:35;;;;;;;5.08;1.30;;;;;;;13.97;64.52;100459.62;1749557;82;20930;-68
2021/05/15 00:35:04;;;;;;;3.15;1.20;;;;;;;13.92;64.71;100468.34;1749525;82;20874;-68
2021/05/15 00:37:31;;;;;;;7.50;1.62;;;;;;;13.87;64.72;100472.65;1749425;82;21638;-68
2021/05/15 00:39:58;;;;;;;3.25;1.02;;;;;;;13.83;64.83;100469.91;1749365;82;20902;-68
2021/05/15 00:42:25;;;;;;;4.92;1.57;;;;;;;13.81;64.84;100475.78;1739447;82;20951;-68
2021/05/15 00:44:53;;;;;;;4.85;2.05;;;;;;;13.79;64.89;100482.95;1735439;81;21397;-68
2021/05/15 00:47:23;;;;;;;2.77;1.20;;;;;;;13.79;65.03;100484.28;1735554;82;20902;-67
2021/05/15 00:49:51;;;;;;;3.83;2.05;;;;;;;13.78;64.95;100484.73;1735533;82;21655;-68
2021/05/15 00:52:20;;;;;;;3.77;1.75;;;;;;;13.80;65.09;100487.26;1735453;82;20915;-67
2021/05/15 00:54:48;;;;;;;2.92;1.45;;;;;;;13.79;65.05;100489.55;1735184;81;20867;-68
2021/05/15 00:57:14;;;;;;;3.77;1.40;;;;;;;13.77;65.08;100499.36;1735478;82;20990;-68
2021/05/15 00:59:41;;;;;;;3.60;1.45;;;;;;;13.74;64.93;100497.80;1735414;81;20926;-67
2021/05/15 01:02:10;;;;;;;5.05;0.93;;;;;;;13.73;64.82;100496.11;1735364;81;20998;-68
2021/05/15 01:04:37;;;;;;;1.55;1.45;;;;;;;13.73;64.92;100492.64;1735469;82;20970;-69
2021/05/15 01:07:07;;;;;;;2.83;1.45;;;;;;;13.72;64.99;100501.48;1735450;82;20990;-69
2021/05/15 01:09:35;;;;;;;5.42;1.42;;;;;;;13.73;65.02;100501.37;1735293;82;20966;-68
2021/05/15 01:12:06;;;;;;;3.67;1.87;;;;;;;13.73;65.21;100497.91;1735539;81;20898;-68
2021/05/15 01:14:36;;;;;;;3.47;2.02;;;;;;;13.74;65.19;100497.80;1735344;82;21133;-68
2021/05/15 01:17:03;;;;;;;5.00;1.40;;;;;;;13.76;65.24;100498.98;1735452;81;20875;-66
2021/05/15 01:19:31;;;;;;;2.67;1.20;;;;;;;13.76;65.15;100501.17;1735356;82;20902;-67
2021/05/15 01:21:58;;;;;;;3.47;1.62;;;;;;;13.76;65.11;100501.17;1735270;82;21488;-68
2021/05/15 01:24:25;;;;;;;3.77;1.60;;;;;;;13.75;65.19;100494.69;1735490;82;20934;-68
2021/05/15 01:26:52;;;;;;;3.92;1.57;;;;;;;13.74;65.09;100495.63;1735375;81;21090;-68
2021/05/15 01:29:19;;;;;;;2.22;2.02;;;;;;;13.71;65.11;100498.50;1735333;82;21057;-68
2021/05/15 01:31:46;;;;;;;6.15;1.75;;;;;;;13.71;65.15;100498.50;1735321;81;21013;-68
2021/05/15 01:34:13;;;;;;;3.87;2.77;;;;;;;13.70;65.27;100489.77;1735402;82;20898;-68
2021/05/15 01:36:42;;;;;;;3.98;1.32;;;;;;;13.69;65.40;100486.75;1735437;81;20927;-68
2021/05/15 01:39:11;;;;;;;4.37;1.32;;;;;;;13.70;65.47;100496.35;1735534;82;21085;-69
2021/05/15 01:41:38;;;;;;;2.37;1.50;;;;;;;13.71;65.50;100494.55;1738462;81;21395;-67
2021/05/15 01:44:06;;;;;;;3.27;1.70;;;;;;;13.72;65.54;100506.30;1749458;82;20994;-68
2021/05/15 01:46:33;;;;;;;2.42;1.55;;;;;;;13.76;65.45;100509.53;1749472;82;20942;-67
2021/05/15 01:49:00;;;;;;;7.75;2.37;;;;;;;13.80;65.37;100513.62;1749283;82;20906;-68
2021/05/15 01:51:26;;;;;;;2.08;1.57;;;;;;;13.81;65.28;100504.77;1749168;80;21094;-67
2021/05/15 01:55:52;;;;;;;2.92;1.87;;;;;;;13.83;65.40;100497.59;1819674;77;22511;-68
2021/05/15 01:58:19;;;;;;;4.10;1.87;;;;;;;13.73;65.42;100488.20;1823554;78;20901;-68
2021/05/15 02:00:46;;;;;;;4.60;1.50;;;;;;;13.71;65.58;100481.37;1823451;78;21072;-67
2021/05/15 02:03:13;;;;;;;2.50;1.45;;;;;;;13.68;65.70;100480.64;1823463;78;21008;-67
2021/05/15 02:05:39;;;;;;;2.65;1.60;;;;;;;13.65;65.98;100475.62;1823411;78;20862;-67
2021/05/15 02:08:09;;;;;;;4.45;2.00;;;;;;;13.61;66.22;100468.89;1823356;78;20977;-67
2021/05/15 02:10:36;;;;;;;8.00;5.40;;;;;;;13.60;66.41;100466.36;1823483;78;21082;-68
2021/05/15 02:13:03;;;;;;;7.22;4.53;;;;;;;13.59;66.44;100472.12;1823473;78;21520;-68
2021/05/15 02:15:31;;;;;;;4.55;3.42;;;;;;;13.59;66.48;100468.65;1823362;78;20909;-66
2021/05/15 02:17:59;;;;;;;8.23;3.50;;;;;;;13.60;66.49;100465.88;1823442;78;21394;-68
2021/05/15 02:20:26;;;;;;;4.42;2.30;;;;;;;13.61;66.65;100460.16;1823434;78;20929;-67
2021/05/15 02:22:53;;;;;;;5.30;2.27;;;;;;;13.60;66.67;100463.24;1823541;78;21827;-67
2021/05/15 02:25:20;;;;;;;4.35;1.95;;;;;;;13.62;66.81;100462.66;1823449;78;21687;-67
2021/05/15 02:27:46;;;;;;;2.33;1.62;;;;;;;13.63;66.97;100463.52;1823435;78;20921;-68
2021/05/15 02:30:16;;;;;;;1.65;1.22;;;;;;;13.64;67.07;100459.91;1823359;78;20997;-67
2021/05/15 02:32:43;;;;;;;3.50;2.25;;;;;;;13.67;67.25;100467.58;1823413;78;21489;-68
2021/05/15 02:35:10;;;;;;;3.52;1.67;;;;;;;13.70;67.32;100466.53;1823435;78;20898;-67
2021/05/15 02:37:37;;;;;;;3.17;1.85;;;;;;;13.74;67.27;100467.95;1823367;78;21067;-68
2021/05/15 02:40:06;;;;;;;3.02;1.80;;;;;;;13.78;67.10;100470.72;1823361;78;20973;-68
2021/05/15 02:42:35;;;;;;;6.33;1.95;;;;;;;13.81;66.97;100471.83;1823397;78;20990;-67
2021/05/15 02:45:03;;;;;;;6.28;1.95;;;;;;;13.81;66.95;100466.55;1823205;78;20901;-68
2021/05/15 02:47:30;;;;;;;9.20;3.10;;;;;;;13.78;66.99;100468.92;1823329;78;21398;-69
2021/05/15 02:49:57;;;;;;;5.70;2.27;;;;;;;13.79;67.16;100475.88;1823327;78;21048;-69
2021/05/15 02:52:24;;;;;;;2.98;1.92;;;;;;;13.81;67.18;100481.05;1823243;78;20973;-68
2021/05/15 02:54:51;;;;;;;2.50;1.60;;;;;;;13.84;67.30;100487.39;1819097;78;21410;-67
2021/05/15 02:57:19;;;;;;;5.22;1.60;;;;;;;13.88;67.14;100495.44;1814963;79;20878;-69
2021/05/15 02:59:46;;;;;;;2.80;1.77;;;;;;;13.93;67.20;100488.01;1815075;78;20969;-68
2021/05/15 03:02:13;;;;;;;5.03;1.98;;;;;;;14.00;67.43;100489.70;1815059;78;21319;-69
2021/05/15 03:04:39;;;;;;;5.60;2.80;;;;;;;14.07;67.44;100485.17;1815046;78;20890;-68
2021/05/15 03:07:06;;;;;;;8.50;2.65;;;;;;;14.20;66.32;100495.59;1814424;78;20953;-68
2021/05/15 03:09:33;;;;;;;4.45;2.40;;;;;;;14.20;66.32;100495.59;1814365;78;21020;-68
2021/05/15 03:12:01;;;;;;;3.77;2.37;;;;;;;14.24;66.24;100499.67;1814446;79;21352;-68
2021/05/15 03:14:28;;;;;;;3.52;2.05;;;;;;;14.26;66.05;100498.25;1814365;79;21493;-68
2021/05/15 03:16:55;;;;;;;4.30;2.62;;;;;;;14.30;65.95;100507.13;1814364;79;21486;-68
2021/05/15 03:19:22;;;;;;;5.47;2.62;;;;;;;14.35;65.68;100509.89;1814390;79;20835;-69
2021/05/15 03:21:49;;;;;;;4.47;2.62;;;;;;;14.37;65.59;100516.72;1814318;79;20925;-67
2021/05/15 03:24:16;;;;;;;6.37;2.15;;;;;;;14.42;65.80;100513.72;1814534;78;20969;-68
2021/05/15 03:26:43;;;;;;;5.37;3.27;;;;;;;14.54;65.50;100506.64;1814434;79;21066;-68
2021/05/15 03:29:10;;;;;;;3.25;2.22;;;;;;;14.54;65.50;100506.64;1814204;79;20894;-68
2021/05/15 03:31:38;;;;;;;4.37;2.80;;;;;;;14.58;65.29;100516.86;1814518;79;20862;-68
2021/05/15 03:34:07;;;;;;;9.10;3.05;;;;;;;14.62;65.12;100503.79;1814376;78;20989;-68
2021/05/15 03:36:35;;;;;;;6.72;2.65;;;;;;;14.65;65.08;100509.30;1814516;79;21474;-67
2021/05/15 03:39:05;;;;;;;4.25;2.75;;;;;;;14.66;65.17;100516.27;1814631;78;21340;-68
2021/05/15 03:41:32;;;;;;;3.20;1.90;;;;;;;14.67;65.14;100508.70;1813857;79;21375;-68
2021/05/15 03:43:59;;;;;;;2.55;1.82;;;;;;;14.69;65.19;100516.86;1814246;78;20913;-67
2021/05/15 03:46:27;;;;;;;7.20;3.45;;;;;;;14.70;65.11;100508.48;1814365;78;21027;-68
2021/05/15 03:48:53;;;;;;;3.00;1.57;;;;;;;14.83;65.31;100511.83;1814449;78;20985;-67
2021/05/15 03:51:20;;;;;;;2.00;1.60;;;;;;;14.83;65.31;100511.83;1814437;79;21048;-68
2021/05/15 03:53:48;;;;;;;3.27;1.75;;;;;;;14.90;65.04;100512.17;1814352;79;20898;-68
2021/05/15 03:56:16;;;;;;;4.20;1.60;;;;;;;15.05;63.92;100506.13;1814291;79;21449;-68
2021/05/15 03:58:43;;;;;;;4.03;2.65;;;;;;;15.05;63.92;100506.13;1814413;78;20886;-68
2021/05/15 04:01:11;;;;;;;3.00;2.25;;;;;;;15.09;64.11;100508.39;1814420;79;21382;-69
2021/05/15 04:03:38;;;;;;;4.37;1.87;;;;;;;15.16;64.10;100514.50;1814454;79;21743;-68
2021/05/15 04:06:07;;;;;;;2.17;1.62;;;;;;;15.20;64.02;100511.98;1814406;78;20992;-69
2021/05/15 04:08:34;;;;;;;3.50;1.98;;;;;;;15.26;63.79;100511.00;1814518;79;20981;-69
2021/05/15 04:11:01;;;;;;;4.22;2.17;;;;;;;15.52;63.32;100512.00;1814465;79;20902;-68
2021/05/15 04:13:46;;;;;;;9.15;2.08;;;;;;;15.52;63.32;100512.00;1814431;78;20870;-69
2021/05/15 04:16:31;;;;;;;4.00;2.52;;;;;;;15.79;62.92;100508.89;1813410;78;21074;-68
2021/05/15 04:18:52;;;;;;;4.53;2.30;;;;;;;16.21;62.32;100510.66;1813280;79;20894;-68
2021/05/15 04:21:19;;;;;;;1.67;1.30;;;;;;;17.17;59.63;100511.52;1814350;79;20862;-68
2021/05/15 04:23:46;;;;;;;4.58;1.32;;;;;;;17.17;59.63;100511.52;1814328;79;21508;-68
2021/05/15 04:26:17;;;;;;;3.65;1.42;;;;;;;17.71;58.49;100513.27;1814281;79;20870;-69
2021/05/15 04:28:44;;;;;;;10.65;1.90;;;;;;;18.30;56.93;100525.15;1814250;79;21163;-69
2021/05/15 04:31:11;;;;;;;5.35;1.80;;;;;;;18.83;55.55;100516.07;1814344;78;20894;-70
2021/05/15 04:33:37;;;;;;;3.47;1.27;;;;;;;19.39;54.31;100523.47;1814397;79;21323;-68
2021/05/15 04:36:06;;;;;;;2.40;1.35;;;;;;;19.94;52.67;100525.61;1814412;78;20981;-69
2021/05/15 04:38:33;;;;;;;4.08;1.22;;;;;;;20.41;51.31;100527.89;1814229;78;21429;-68
2021/05/15 04:41:00;;;;;;;5.53;1.60;;;;;;;20.84;49.91;100536.80;1814419;79;21728;-68
2021/05/15 04:43:28;;;;;;;2.47;1.27;;;;;;;21.20;49.12;100525.39;1814382;79;20992;-68
2021/05/15 04:45:56;;;;;;;4.37;2.67;;;;;;;21.51;47.96;100520.80;1814351;78;20989;-68
2021/05/15 04:48:22;;;;;;;3.05;1.47;;;;;;;21.83;47.82;100523.14;1814240;79;21407;-68
2021/05/15 04:50:49;;;;;;;7.65;1.25;;;;;;;22.22;46.68;100529.14;1814426;79;20886;-69
2021/05/15 04:53:16;;;;;;;4.97;1.25;;;;;;;22.55;45.95;100536.05;1814342;79;21044;-69
2021/05/15 04:55:43;;;;;;;5.60;1.30;;;;;;;22.91;45.38;100540.09;1815852;78;21530;-69
2021/05/15 04:58:10;;;;;;;3.12;1.30;;;;;;;23.23;44.39;100544.95;1817666;79;20933;-68
2021/05/15 05:00:37;;;;;;;3.20;1.05;;;;;;;23.57;43.81;100536.55;1817714;79;20957;-70
2021/05/15 05:03:04;;;;;;;5.95;1.00;;;;;;;23.86;42.62;100545.20;1817746;78;20996;-68
2021/05/15 05:05:31;;;;;;;2.95;0.80;;;;;;;24.02;42.15;100544.73;1817660;78;21193;-67
2021/05/15 05:08:00;;;;;;;4.05;2.00;;;;;;;24.19;41.78;100548.92;1817573;78;20921;-69
2021/05/15 05:10:28;;;;;;;3.87;1.57;;;;;;;24.42;41.47;100550.17;1817656;79;21399;-70
2021/05/15 05:12:55;;;;;;;4.08;1.55;;;;;;;24.72;40.96;100543.48;1817640;79;21499;-68
2021/05/15 05:15:24;;;;;;;3.17;1.40;;;;;;;24.97;40.41;100536.80;1817667;78;20953;-68
2021/05/15 05:17:50;;;;;;;2.95;0.90;;;;;;;25.26;40.20;100542.28;1817860;79;21106;-69
2021/05/15 05:20:18;;;;;;;2.10;0.78;;;;;;;25.45;39.60;100541.66;1817682;78;20917;-69
2021/05/15 05:22:45;;;;;;;7.20;1.20;;;;;;;25.55;39.30;100534.12;1817715;78;21021;-69
2021/05/15 05:25:13;;;;;;;5.85;2.72;;;;;;;25.65;39.45;100538.64;1817723;78;21441;-70
2021/05/15 05:27:45;;;;;;;4.25;0.82;;;;;;;25.92;39.37;100536.22;1817750;79;20866;-68
2021/05/15 05:30:11;;;;;;;4.10;1.12;;;;;;;26.28;38.55;100543.80;1817084;78;21661;-71
2021/05/15 05:32:38;;;;;;;5.30;0.95;;;;;;;26.58;37.87;100540.41;1817633;78;20911;-68
2021/05/15 05:35:07;;;;;;;1.32;0.60;;;;;;;26.72;37.35;100542.64;1817564;78;21363;-69
2021/05/15 05:37:33;;;;;;;3.10;1.00;;;;;;;26.72;37.14;100546.67;1817315;79;20989;-68
2021/05/15 05:40:01;;;;;;;4.60;0.93;;;;;;;26.72;36.97;100550.19;1817752;79;21410;-68
2021/05/15 05:42:27;;;;;;;9.30;1.70;;;;;;;26.79;37.42;100547.03;1817709;79;20993;-68
2021/05/15 05:44:55;;;;;;;3.05;0.90;;;;;;;26.97;37.27;100545.63;1817627;78;21490;-69
2021/05/15 05:47:21;;;;;;;5.22;0.72;;;;;;;27.27;36.61;100548.34;1817975;78;20890;-68
2021/05/15 05:49:48;;;;;;;4.10;0.62;;;;;;;27.46;36.17;100549.43;1817651;79;20933;-68
2021/05/15 05:52:15;;;;;;;2.80;0.82;;;;;;;27.62;35.75;100544.69;1817783;79;20969;-68
2021/05/15 05:54:42;;;;;;;5.55;1.12;;;;;;;27.72;35.52;100549.66;1817719;79;21085;-68
2021/05/15 05:57:09;;;;;;;4.40;0.68;;;;;;;27.80;35.68;100544.06;1814126;78;20909;-71
2021/05/15 05:59:36;;;;;;;2.58;0.60;;;;;;;27.98;35.33;100544.81;1814275;79;20969;-69
2021/05/15 06:02:03;;;;;;;2.72;0.80;;;;;;;28.18;34.74;100549.66;1814238;79;21410;-72
2021/05/15 06:04:30;;;;;;;3.70;0.80;;;;;;;28.34;34.27;100538.95;1814184;79;20854;-69
2021/05/15 06:06:57;;;;;;;1.82;0.78;;;;;;;28.47;34.34;100542.14;1814287;78;21060;-70
2021/05/15 06:09:24;;;;;;;1.00;0.82;;;;;;;28.70;34.35;100545.72;1814225;79;20878;-67
2021/05/15 06:11:50;;;;;;;4.17;1.22;;;;;;;28.90;33.75;100552.38;1814377;79;20846;-67
2021/05/15 06:14:17;;;;;;;4.55;0.80;;;;;;;29.04;33.84;100547.77;1814064;78;20961;-69
2021/05/15 06:16:46;;;;;;;3.45;0.70;;;;;;;29.13;33.15;100547.86;1814218;78;20905;-68
2021/05/15 06:19:16;;;;;;;4.37;0.70;;;;;;;29.13;33.39;100541.92;1814284;79;21264;-68
2021/05/15 06:21:43;;;;;;;2.65;0.90;;;;;;;29.31;33.74;100541.72;1814275;78;20882;-69
2021/05/15 06:24:11;;;;;;;2.58;0.57;;;;;;;29.53;32.87;100541.66;1814240;79;21395;-67
2021/05/15 06:26:39;;;;;;;2.85;0.60;;;;;;;29.71;32.39;100546.34;1814113;79;20930;-69
2021/05/15 06:29:07;;;;;;;3.77;0.90;;;;;;;29.80;32.32;100543.38;1814255;78;21478;-69
2021/05/15 06:31:34;;;;;;;3.15;1.37;;;;;;;29.95;32.18;100538.46;1814231;78;21053;-70
2021/05/15 06:34:02;;;;;;;1.82;0.57;;;;;;;30.02;31.46;100535.16;1814190;79;20886;-68
2021/05/15 06:36:28;;;;;;;2.45;0.80;;;;;;;30.06;31.85;100540.44;1814065;79;20906;-69
2021/05/15 06:38:56;;;;;;;4.47;0.72;;;;;;;30.22;31.89;100544.44;1814170;79;20941;-70
2021/05/15 06:41:23;;;;;;;3.77;0.72;;;;;;;30.41;30.99;100545.82;1814427;79;20921;-69
2021/05/15 06:43:51;;;;;;;8.60;0.90;;;;;;;30.61;31.09;100537.48;1814344;78;21407;-71
2021/05/15 06:46:19;;;;;;;2.83;0.80;;;;;;;30.80;31.29;100546.42;1814282;79;20890;-71
2021/05/15 06:48:48;;;;;;;2.58;0.68;;;;;;;30.99;30.65;100545.34;1814316;78;21074;-70
2021/05/15 06:51:16;;;;;;;4.08;0.62;;;;;;;31.15;30.18;100541.20;1814301;79;21466;-71
2021/05/15 06:53:44;;;;;;;5.72;0.78;;;;;;;31.26;29.16;100543.62;1814448;79;20941;-69
2021/05/15 06:56:11;;;;;;;2.25;0.60;;;;;;;31.15;29.20;100545.27;1816794;78;21059;-69
2021/05/15 06:58:41;;;;;;;5.95;1.37;;;;;;;31.03;29.56;100547.08;1820012;78;20993;-69
2021/05/15 07:01:07;;;;;;;3.25;0.50;;;;;;;31.02;30.35;100542.73;1819945;78;20918;-70
2021/05/15 07:03:36;;;;;;;2.92;0.50;;;;;;;31.08;29.53;100549.42;1820199;78;20989;-70
2021/05/15 07:06:07;;;;;;;7.62;0.98;;;;;;;31.22;29.93;100545.16;1820074;78;20925;-69
2021/05/15 07:08:34;;;;;;;4.08;0.75;;;;;;;31.43;29.76;100554.67;1820143;78;21598;-68
2021/05/15 07:11:02;;;;;;;5.08;0.60;;;;;;;31.49;28.70;100557.28;1820000;78;20915;-72
2021/05/15 07:13:29;;;;;;;2.02;0.60;;;;;;;31.44;28.67;100554.45;1820110;78;20913;-68
2021/05/15 07:15:58;;;;;;;19.12;1.70;;;;;;;31.42;28.88;100553.85;1819935;78;20992;-69
2021/05/15 07:18:26;;;;;;;11.88;1.50;;;;;;;31.40;28.79;100562.71;1820089;78;20968;-67
2021/05/15 07:20:53;;;;;;;2.47;0.65;;;;;;;31.48;29.07;100561.58;1820123;78;21085;-68
2021/05/15 07:23:20;;;;;;;6.35;1.05;;;;;;;31.59;28.72;100565.69;1820089;78;20886;-68
2021/05/15 07:25:47;;;;;;;2.42;0.57;;;;;;;31.71;28.16;100560.81;1820033;78;21485;-65
2021/05/15 07:28:15;;;;;;;2.35;0.50;;;;;;;31.74;27.91;100566.58;1820193;78;21036;-69
2021/05/15 07:30:42;;;;;;;2.17;0.40;;;;;;;31.72;28.06;100566.52;1820136;78;20917;-71
2021/05/15 07:33:11;;;;;;;1.60;0.68;;;;;;;31.77;28.44;100566.13;1820031;78;21076;-72
2021/05/15 07:35:39;;;;;;;6.62;1.22;;;;;;;31.81;27.81;100564.58;1820091;78;21096;-73
2021/05/15 07:38:06;;;;;;;4.17;1.00;;;;;;;31.97;28.44;100569.89;1820181;78;21451;-75
2021/05/15 07:40:33;;;;;;;3.45;0.88;;;;;;;32.24;28.32;100565.36;1820053;78;20923;-74
2021/05/15 07:43:04;;;;;;;5.28;0.78;;;;;;;32.45;28.03;100567.97;1820192;78;20983;-75
2021/05/15 07:45:29;;;;;;;1.67;0.60;;;;;;;32.65;27.31;100564.90;1819864;78;20975;-77
2021/05/15 07:47:56;;;;;;;2.37;0.70;;;;;;;32.85;27.37;100575.35;1819888;78;20961;-75
2021/05/15 07:50:24;;;;;;;5.35;0.50;;;;;;;32.94;27.46;100573.91;1819636;78;20993;-79
2021/05/15 07:52:50;;;;;;;3.08;1.20;;;;;;;32.88;26.83;100584.37;1819986;78;20914;-74
2021/05/15 07:55:18;;;;;;;4.20;0.53;;;;;;;32.85;26.50;100580.79;1820033;78;20941;-75
2021/05/15 07:57:45;;;;;;;3.25;0.65;;;;;;;32.78;26.91;100575.48;1817638;78;21086;-75
2021/05/15 08:00:14;;;;;;;3.00;0.60;;;;;;;32.81;27.36;100574.18;1817775;79;20893;-74
2021/05/15 08:02:43;;;;;;;11.08;1.07;;;;;;;33.02;27.90;100574.89;1791128;79;20913;-77
2021/05/15 08:05:10;;;;;;;6.30;0.72;;;;;;;33.30;26.65;100575.15;1817691;79;21004;-77
2021/05/15 08:07:38;;;;;;;5.55;1.72;;;;;;;33.33;26.21;100573.29;1817935;79;20981;-82
2021/05/15 08:10:07;;;;;;;4.85;1.30;;;;;;;33.42;26.20;100572.66;1817822;79;20997;-74
2021/05/15 08:12:34;;;;;;;11.05;1.15;;;;;;;33.46;25.95;100574.34;1817910;79;20897;-75
2021/05/15 08:15:02;;;;;;;6.97;0.95;;;;;;;33.45;25.36;100573.52;1817661;78;21339;-74
2021/05/15 08:17:29;;;;;;;0.65;0.50;;;;;;;33.34;25.28;100575.77;1817575;78;20905;-75
2021/05/15 08:19:56;;;;;;;3.87;0.35;;;;;;;33.28;25.10;100581.36;1817795;78;20882;-74
2021/05/15 08:22:23;;;;;;;3.70;0.50;;;;;;;33.11;25.00;100578.62;1817779;78;21027;-75
2021/05/15 08:24:50;;;;;;;12.13;0.93;;;;;;;32.92;25.25;100584.72;1817709;79;20975;-75
2021/05/15 08:27:17;;;;;;;2.50;0.50;;;;;;;32.95;25.41;100581.52;1817854;78;20906;-75
2021/05/15 08:29:44;;;;;;;7.05;6.15;;;;;;;33.02;25.09;100572.71;1817654;79;20977;-74
2021/05/15 08:32:10;;;;;;;6.08;1.82;;;;;;;32.81;25.51;100573.64;1817646;79;21391;-74
2021/05/15 08:34:38;;;;;;;7.03;0.72;;;;;;;32.69;25.67;100581.55;1817638;79;21088;-73
2021/05/15 08:37:05;;;;;;;2.98;0.57;;;;;;;32.58;25.76;100581.33;1817754;78;21021;-73
2021/05/15 08:39:32;;;;;;;2.45;0.60;;;;;;;32.67;25.39;100580.96;1817728;79;20913;-74
2021/05/15 08:41:59;;;;;;;3.40;0.90;;;;;;;32.82;25.03;100580.73;1817651;79;21545;-76
2021/05/15 08:44:25;;;;;;;3.58;0.42;;;;;;;32.91;24.03;100593.95;1817102;78;21187;-75
2021/05/15 08:46:52;;;;;;;2.17;0.85;;;;;;;32.83;24.05;100574.77;1817606;79;20965;-74
2021/05/15 08:49:22;;;;;;;2.55;0.60;;;;;;;32.70;24.36;100575.86;1817725;78;21001;-73
2021/05/15 08:51:52;;;;;;;2.75;0.42;;;;;;;32.26;25.05;100585.45;1817745;79;20909;-75
2021/05/15 08:54:21;;;;;;;4.72;0.75;;;;;;;32.08;25.07;100580.97;1817727;78;21383;-75
2021/05/15 08:56:50;;;;;;;3.67;0.30;;;;;;;31.99;25.36;100581.34;1817542;79;20914;-72
2021/05/15 08:59:17;;;;;;;3.85;0.72;;;;;;;31.96;24.71;100574.16;1817734;79;21049;-74
2021/05/15 09:01:44;;;;;;;1.57;0.20;;;;;;;31.99;25.43;100572.35;1817603;78;20984;-74
2021/05/15 09:04:11;;;;;;;6.17;0.90;;;;;;;31.97;25.48;100578.03;1817658;79;20906;-74
2021/05/15 09:06:41;;;;;;;0.88;0.40;;;;;;;31.80;25.21;100578.39;1817733;79;20909;-77
2021/05/15 09:09:08;;;;;;;7.17;0.65;;;;;;;31.60;25.66;100580.88;1817694;78;21490;-74
2021/05/15 09:11:36;;;;;;;0.85;0.30;;;;;;;31.44;25.96;100575.28;1817553;79;20862;-73
2021/05/15 09:14:03;;;;;;;2.02;0.60;;;;;;;31.42;25.98;100585.02;1817671;79;20925;-69
2021/05/15 09:16:31;;;;;;;3.20;0.40;;;;;;;31.47;25.96;100570.24;1817592;78;20874;-68
2021/05/15 09:19:05;;;;;;;3.45;0.90;;;;;;;31.68;25.78;100573.46;1817673;79;20933;-68
2021/05/15 09:21:34;;;;;;;6.53;0.70;;;;;;;31.76;25.61;100569.06;1817808;78;21351;-67
2021/05/15 09:24:05;;;;;;;2.75;0.53;;;;;;;31.64;26.11;100567.70;1817714;79;21218;-69
2021/05/15 09:26:30;;;;;;;4.60;0.50;;;;;;;31.62;26.16;100573.88;1817267;78;21031;-69
2021/05/15 09:28:58;;;;;;;5.67;0.82;;;;;;;31.34;26.45;100571.22;1817654;78;21461;-70
2021/05/15 09:31:30;;;;;;;6.80;0.57;;;;;;;31.33;26.50;100575.01;1817736;79;21013;-73
2021/05/15 09:34:02;;;;;;;3.20;0.40;;;;;;;31.14;26.68;100574.75;1817731;79;21461;-71
2021/05/15 09:36:32;;;;;;;6.90;0.78;;;;;;;31.03;26.79;100572.28;1817659;78;21050;-73
2021/05/15 09:39:06;;;;;;;3.98;0.37;;;;;;;31.00;26.59;100580.06;1817561;79;21411;-72
2021/05/15 09:41:53;;;;;;;7.40;0.57;;;;;;;30.97;26.12;100574.55;1817745;78;20878;-70
2021/05/15 09:44:28;;;;;;;2.77;0.35;;;;;;;30.94;26.60;100576.36;1817569;79;20882;-72
2021/05/15 09:46:56;;;;;;;3.33;0.50;;;;;;;30.77;26.77;100567.48;1817712;78;20933;-70
2021/05/15 09:49:26;;;;;;;2.10;1.05;;;;;;;30.69;27.25;100561.02;1785870;79;21088;-70
2021/05/15 09:52:05;;;;;;;2.47;0.60;;;;;;;30.51;27.62;100568.61;1785653;80;21443;-73
2021/05/15 09:54:38;;;;;;;1.37;0.47;;;;;;;30.46;28.37;100567.12;1785550;79;21611;-73
2021/05/15 09:57:15;;;;;;;9.00;0.93;;;;;;;30.34;28.48;100577.02;1784433;79;21000;-72
2021/05/15 09:59:47;;;;;;;3.22;0.60;;;;;;;30.35;27.68;100571.92;1782995;80;20890;-71
2021/05/15 10:02:16;;;;;;;2.77;0.40;;;;;;;30.41;27.97;100569.64;1782978;80;21450;-73
2021/05/15 10:04:46;;;;;;;3.22;0.60;;;;;;;30.41;28.31;100571.53;1782860;79;20933;-71
2021/05/15 10:07:21;;;;;;;3.52;0.80;;;;;;;30.48;27.27;100566.37;1781570;80;20993;-72
2021/05/15 10:09:48;;;;;;;1.77;0.45;;;;;;;30.18;27.75;100567.56;1782953;80;20926;-73
2021/05/15 10:12:15;;;;;;;6.42;1.35;;;;;;;29.87;28.55;100567.94;1782959;79;20929;-71
2021/05/15 10:14:42;;;;;;;20.57;2.35;;;;;;;29.75;28.75;100570.54;1783116;80;21055;-72
2021/05/15 10:17:10;;;;;;;5.70;1.92;;;;;;;29.71;28.54;100573.91;1782995;79;21430;-71
2021/05/15 10:19:38;;;;;;;6.22;0.90;;;;;;;29.44;29.32;100573.23;1783235;79;20993;-71
2021/05/15 10:22:05;;;;;;;10.70;2.05;;;;;;;29.18;30.04;100572.86;1783200;80;21001;-71
2021/05/15 10:24:34;;;;;;;7.60;1.20;;;;;;;28.85;30.23;100582.72;1783240;79;21478;-72
2021/05/15 10:27:11;;;;;;;5.37;1.37;;;;;;;28.47;30.53;100578.06;1783040;80;21008;-70
2021/05/15 10:29:49;;;;;;;4.97;1.30;;;;;;;28.35;31.35;100580.23;1783024;80;20988;-70
2021/05/15 10:32:23;;;;;;;1.45;0.78;;;;;;;28.39;31.18;100573.38;1751205;80;20937;-71
2021/05/15 10:35:05;;;;;;;4.67;1.72;;;;;;;28.65;31.49;100583.31;1713020;83;20945;-69
2021/05/15 10:37:42;;;;;;;1.30;0.70;;;;;;;28.91;31.62;100573.78;1751375;80;20952;-68
2021/05/15 10:40:19;;;;;;;5.28;1.00;;;;;;;29.04;30.68;100572.90;1713065;83;21663;-70
2021/05/15 10:43:02;;;;;;;2.95;0.55;;;;;;;29.12;30.19;100570.48;1712927;82;20950;-69
2021/05/15 10:45:42;;;;;;;2.70;0.55;;;;;;;29.09;30.48;100566.88;1713248;83;20906;-69
2021/05/15 10:48:22;;;;;;;6.45;0.70;;;;;;;29.05;30.93;100569.14;1751364;82;21031;-72
2021/05/15 10:50:52;;;;;;;2.37;0.50;;;;;;;28.67;31.31;100582.06;1751040;82;21110;-74
2021/05/15 10:53:21;;;;;;;2.20;0.45;;;;;;;28.28;31.28;100569.45;1751160;82;21793;-72
2021/05/15 10:56:13;;;;;;;11.10;2.95;;;;;;;27.90;31.90;100576.34;1751219;82;20980;-75
2021/05/15 10:58:51;;;;;;;5.65;1.12;;;;;;;27.58;32.51;100572.55;1709530;83;21001;-72
2021/05/15 11:01:23;;;;;;;1.52;0.90;;;;;;;27.25;33.73;100570.61;1709554;83;21001;-74
2021/05/15 11:03:50;;;;;;;2.22;0.53;;;;;;;26.98;33.97;100562.11;1709422;84;20934;-73
2021/05/15 11:06:20;;;;;;;1.80;0.65;;;;;;;26.75;34.26;100572.67;1709346;82;21096;-74
2021/05/15 11:09:05;;;;;;;3.20;0.80;;;;;;;26.72;34.12;100573.05;1714973;82;20988;-71
2021/05/15 11:11:44;;;;;;;2.30;0.60;;;;;;;26.67;34.21;100570.14;1721935;83;20926;-75
2021/05/15 11:14:33;;;;;;;3.60;0.60;;;;;;;26.65;34.24;100569.51;1744852;80;20895;-74
2021/05/15 11:17:25;;;;;;;2.20;0.70;;;;;;;26.69;34.65;100572.13;1712992;83;20921;-73
2021/05/15 11:20:06;;;;;;;1.22;0.60;;;;;;;26.88;35.06;100563.84;1744958;80;21080;-77
2021/05/15 11:22:49;;;;;;;10.82;1.10;;;;;;;27.02;34.70;100558.81;1713687;82;21342;-73
2021/05/15 11:25:22;;;;;;;4.25;0.72;;;;;;;27.19;34.54;100554.40;1745024;81;21544;-73
2021/05/15 11:27:58;;;;;;;7.83;0.65;;;;;;;27.38;34.73;100556.34;1721856;83;21470;-72
2021/05/15 11:30:28;;;;;;;7.30;1.00;;;;;;;27.52;33.90;100557.20;1745101;80;21000;-72
2021/05/15 11:33:05;;;;;;;0.80;0.57;;;;;;;27.66;33.21;100558.88;1721811;83;21649;-73